createdAt,value
2022-08-16T00:08:37.057Z,74.20
2022-08-16T00:18:39.041Z,75.07
2022-08-16T00:28:40.541Z,74.85
2022-08-16T00:38:43.434Z,75.03
2022-08-16T00:48:45.876Z,74.77
2022-08-16T00:58:48.452Z,74.76
2022-08-16T01:08:54.897Z,75.14
2022-08-16T01:19:01.203Z,75.62
2022-08-16T01:29:10.777Z,75.75
2022-08-16T01:39:16.925Z,76.09
2022-08-16T01:49:25.855Z,77.43
2022-08-16T01:59:46.086Z,77.28
2022-08-16T02:09:56.887Z,77.40
2022-08-16T02:20:01.849Z,77.83
2022-08-16T02:30:36.719Z,77.57
2022-08-16T02:40:38.696Z,78.13
2022-08-16T02:50:54.767Z,78.67
2022-08-16T03:01:06.063Z,79.26
2022-08-16T03:11:20.504Z,79.56
2022-08-16T03:21:23.955Z,80.32
2022-08-16T03:31:26.139Z,79.95
2022-08-16T03:41:50.109Z,79.92
2022-08-16T03:51:55.796Z,80.09
2022-08-16T04:02:10.634Z,80.79
2022-08-16T04:12:52.477Z,80.43
2022-08-16T04:22:45.665Z,80.86
2022-08-16T04:32:51.052Z,81.47
2022-08-16T04:42:58.577Z,81.84
2022-08-16T04:53:02.897Z,82.79
2022-08-16T05:03:11.315Z,81.71
2022-08-16T05:13:19.665Z,81.49
2022-08-16T05:23:21.975Z,81.06
2022-08-16T05:33:26.154Z,80.06
2022-08-16T05:43:32.173Z,79.29
2022-08-16T05:53:47.186Z,77.99
2022-08-16T06:03:51.315Z,77.54
2022-08-16T06:14:19.381Z,75.25
2022-08-16T06:24:54.573Z,61.03
2022-08-16T06:34:57.137Z,59.89
2022-08-16T06:45:06.101Z,58.57
2022-08-16T06:55:33.754Z,64.63
2022-08-16T07:05:41.427Z,66.85
2022-08-16T07:15:51.215Z,65.10
2022-08-16T07:25:59.634Z,64.77
2022-08-16T07:36:01.441Z,64.07
2022-08-16T07:46:04.463Z,54.60
2022-08-16T07:56:11.098Z,54.67
2022-08-16T08:06:14.822Z,53.65
2022-08-16T08:16:18.927Z,57.53
2022-08-16T08:26:21.760Z,57.16
2022-08-16T08:36:33.409Z,53.93
2022-08-16T08:46:44.394Z,48.64
2022-08-16T08:57:02.935Z,48.21
2022-08-16T09:07:27.245Z,45.85
2022-08-16T09:17:49.235Z,46.22
2022-08-16T09:27:57.099Z,46.53
2022-08-16T09:38:01.321Z,45.63
2022-08-16T09:48:03.297Z,45.70
2022-08-16T09:58:05.467Z,44.67
2022-08-16T10:08:25.840Z,44.79
2022-08-16T10:19:00.304Z,44.79
2022-08-16T10:28:52.247Z,48.21
2022-08-16T10:38:53.717Z,45.59
2022-08-16T10:48:55.150Z,43.77
2022-08-16T10:59:28.849Z,42.75
2022-08-16T11:09:25.560Z,44.37
2022-08-16T11:19:30.459Z,45.12
2022-08-16T11:29:31.875Z,46.90
2022-08-16T11:39:34.286Z,47.00
2022-08-16T11:49:35.845Z,46.55
2022-08-16T11:59:40.000Z,47.73
2022-08-16T12:09:43.551Z,52.33
2022-08-16T12:19:45.176Z,57.32
2022-08-16T12:29:47.232Z,55.82
2022-08-16T12:39:51.138Z,52.63
2022-08-16T12:49:54.330Z,51.78
2022-08-16T12:59:55.749Z,52.32
2022-08-16T13:09:57.585Z,51.21
2022-08-16T13:20:08.041Z,50.68
2022-08-16T13:30:35.449Z,43.54
2022-08-16T13:40:32.753Z,42.76
2022-08-16T13:50:49.647Z,40.36
2022-08-16T14:00:53.650Z,41.00
2022-08-16T14:10:55.981Z,40.79
2022-08-16T14:20:57.399Z,40.48
2022-08-16T14:30:58.998Z,40.78
2022-08-16T14:41:01.777Z,40.16
2022-08-16T14:51:03.869Z,40.68
2022-08-16T15:01:10.005Z,40.47
2022-08-16T15:11:11.924Z,39.93
2022-08-16T15:21:13.835Z,40.47
2022-08-16T15:31:15.360Z,39.23
2022-08-16T15:41:28.975Z,39.44
2022-08-16T15:51:30.488Z,41.60
2022-08-16T16:01:32.486Z,41.56
2022-08-16T16:11:34.654Z,41.45
2022-08-16T16:21:37.136Z,41.47
2022-08-16T16:31:41.252Z,42.63
2022-08-16T16:41:45.423Z,44.58
2022-08-16T16:51:49.684Z,45.07
2022-08-16T17:02:00.377Z,45.64
2022-08-16T17:12:24.715Z,46.16
2022-08-16T17:22:32.742Z,46.34
2022-08-16T17:32:34.660Z,46.42
2022-08-16T17:42:52.804Z,47.35
2022-08-16T17:52:55.536Z,48.27
2022-08-16T18:02:58.304Z,49.08
2022-08-16T18:13:00.563Z,49.25
2022-08-16T18:23:09.784Z,50.33
2022-08-16T18:33:16.045Z,53.37
2022-08-16T18:43:19.915Z,53.70
2022-08-16T18:53:22.457Z,53.94
2022-08-16T19:03:27.696Z,55.12
2022-08-16T19:13:30.575Z,56.81
2022-08-16T19:23:33.384Z,57.62
2022-08-16T19:33:35.408Z,59.38
2022-08-16T19:43:38.517Z,59.97
2022-08-16T19:53:39.977Z,60.75
2022-08-16T20:03:41.376Z,61.34
2022-08-16T20:13:42.805Z,61.69
2022-08-16T20:23:44.242Z,62.83
2022-08-16T20:33:45.874Z,63.56
2022-08-16T20:43:48.771Z,64.93
2022-08-16T20:53:50.276Z,65.17
2022-08-16T21:03:51.697Z,66.05
2022-08-16T21:14:00.321Z,66.96
2022-08-16T21:24:02.310Z,66.91
2022-08-16T21:34:03.700Z,67.82
2022-08-16T21:44:05.806Z,68.20
2022-08-16T21:54:07.286Z,69.20
2022-08-16T22:04:36.532Z,69.15
2022-08-16T22:14:32.322Z,69.61
2022-08-16T22:24:33.799Z,70.49
2022-08-16T22:34:35.233Z,70.84
2022-08-16T22:44:37.491Z,71.48
2022-08-16T22:54:48.358Z,71.90
2022-08-16T23:04:50.388Z,71.97
2022-08-16T23:14:51.812Z,73.19
2022-08-16T23:24:56.603Z,73.56
2022-08-16T23:35:02.944Z,73.82
2022-08-16T23:45:05.813Z,74.03
2022-08-16T23:55:07.702Z,75.06
